Airfield :
LOGIN :

Register | Disclaimer

   EN    FR    IT 

 










Legend :    VFR   Marginal VFR   IFR   Intensive IFR   Very Intensive IFR
Visi :
Ceiling :
>= 8 km
>= 3000ft
5 to 8 km
1000 to 3000 ft
1500m to 5 km
500 to 1000 ft
800 to 1500m
200 to 500 ft
< 800m
< 200 ft
Symbols :   Thunderstorms  Fog  Heavy snow  Heavy precipitations  Wind > 20 kt
SIGMETs :     Misc.  Thunderstorms  Icing  Turbulence  Mountain Waves  Volcanic Ashes






- Airport Elevation : 53 ft
- IATA code : HAM


EDDH - Hamburg

CURRENT METAR :
  • 290920Z AUTO 23005KT 200V260 9999 SCT010 SCT032 OVC045 12/10 Q1010 TEMPO BKN012

EXPIRED METARs :
  • 290850Z AUTO 23007KT 9999 SCT010 BKN031 OVC042 12/10 Q1010 TEMPO BKN011
  • 290820Z AUTO 25006KT 230V300 9999 BKN010 BKN040 OVC048 11/09 Q1011 BECMG SCT009 BKN015
  • 290750Z AUTO 25006KT 220V280 9999 FEW008 BKN042 OVC048 11/10 Q1011 TEMPO BKN014
  • 290720Z AUTO 25007KT 9999 FEW007 BKN040 11/10 Q1010 TEMPO BKN014
  • 290650Z AUTO 24005KT 210V270 9999 BKN039 11/09 Q1011 TEMPO BKN014

TAF TAF EDDH
Valid from the 29 at 06:00 until the 30 at 12:00 UTC


290500Z 2906/3012 24005KT 9999 SCT012 BKN025
TEMPO 2906/2909 SCT008 BKN012
PROB30
TEMPO 2906/2908 4500 -RADZ
BECMG 2908/2910 29011KT
PROB30
TEMPO 2909/2918 SHRA BKN015CB
BECMG 2918/2920 29005KT
PROB30
TEMPO 3006/3008 BKN014



MET'MAP, your aeronautical weather chart ! - Copyright ORBIFLY December 2007 - Disclaimer

ORBIFLY MET'MAP TEAM :

Programming & Development : Alexandra Zaïnal
Original concept : Baudouin d'Aumeries
Technical & hardware support : Manuel Goepfert
Assistance : Marc-Olivier Méhu

Contact : metmap@orbifly.com




SOURCES & CREDITS :

   NOAA